Time;durP1;ratioP1;P1;durP2;ratioP2;P2;SDS_P1;SDS_P2;PMS_P1;PMS_P2;Temp;Humidity;BMP_temperature;BMP_pressure;BME280_temperature;BME280_humidity;BME280_pressure;Samples;Min_cycle;Max_cycle;Signal;HPM_P1;HPM_P2
2021/03/30 00:00:51;;;;;;;10.70;2.97;;;;;;;12.72;64.38;101733.50;4403939;32;20026;-77
2021/03/30 00:03:17;;;;;;;6.32;3.40;;;;;;;12.80;64.18;101734.97;4407390;32;20107;-77
2021/03/30 00:05:43;;;;;;;10.68;3.03;;;;;;;12.79;64.18;101736.19;4410179;32;20098;-74
2021/03/30 00:08:09;;;;;;;8.82;3.03;;;;;;;12.84;64.05;101735.69;4406379;32;20160;-80
2021/03/30 00:10:40;;;;;;;6.12;2.75;;;;;;;12.78;64.33;101731.78;4408430;32;20045;-80
2021/03/30 00:13:07;;;;;;;9.65;3.47;;;;;;;12.73;64.40;101735.06;4406161;32;20026;-80
2021/03/30 00:15:33;;;;;;;10.13;3.35;;;;;;;12.63;64.74;101738.87;4407199;32;20559;-76
2021/03/30 00:17:59;;;;;;;7.30;2.75;;;;;;;12.70;64.52;101729.50;4406687;32;20792;-81
2021/03/30 00:20:25;;;;;;;8.32;2.83;;;;;;;12.57;64.95;101743.41;4405034;32;20029;-77
2021/03/30 00:22:51;;;;;;;9.02;3.45;;;;;;;12.59;64.75;101740.16;4404184;32;20415;-81
2021/03/30 00:25:17;;;;;;;12.18;3.05;;;;;;;12.55;64.67;101745.09;4408901;32;20079;-76
2021/03/30 00:27:42;;;;;;;11.82;3.42;;;;;;;12.49;64.85;101750.41;4404244;32;20152;-79
2021/03/30 00:30:10;;;;;;;15.25;3.28;;;;;;;12.50;64.62;101754.03;4407444;32;20022;-81
2021/03/30 00:32:36;;;;;;;7.43;3.08;;;;;;;12.56;64.25;101753.13;4404542;32;20062;-80
2021/03/30 00:35:03;;;;;;;7.87;2.87;;;;;;;12.45;64.21;101744.00;4407076;32;20085;-81
2021/03/30 00:37:29;;;;;;;11.07;4.00;;;;;;;12.52;63.79;101743.13;4406460;32;20591;-79
2021/03/30 00:39:55;;;;;;;13.73;3.65;;;;;;;12.47;64.24;101747.22;4405965;32;20060;-77
2021/03/30 00:42:21;;;;;;;11.63;3.50;;;;;;;12.52;63.93;101745.94;4407441;32;20042;-75
2021/03/30 00:44:48;;;;;;;8.77;3.22;;;;;;;12.51;64.67;101742.31;4409137;32;20148;-77
2021/03/30 00:47:15;;;;;;;11.40;3.58;;;;;;;12.52;65.01;101755.19;4404323;32;20453;-79
2021/03/30 00:49:42;;;;;;;10.60;3.60;;;;;;;12.53;64.97;101750.34;4404897;32;20061;-78
2021/03/30 00:52:09;;;;;;;12.05;3.83;;;;;;;12.54;64.88;101749.13;4406411;32;20044;-77
2021/03/30 00:54:36;;;;;;;12.20;4.07;;;;;;;12.29;66.03;101751.53;4406678;32;20053;-80
2021/03/30 00:57:03;;;;;;;13.02;4.15;;;;;;;12.34;65.73;101756.69;4407488;32;20042;-80
2021/03/30 00:59:29;;;;;;;11.63;3.83;;;;;;;12.28;66.04;101755.59;4406217;32;20426;-80
2021/03/30 01:01:55;;;;;;;8.15;3.58;;;;;;;12.23;65.95;101753.22;4404321;32;20022;-79
2021/03/30 01:04:21;;;;;;;14.18;4.53;;;;;;;12.19;66.23;101760.94;4408574;32;20473;-78
2021/03/30 01:06:47;;;;;;;8.85;3.80;;;;;;;12.05;66.49;101757.12;4408090;32;20104;-78
2021/03/30 01:09:53;;;;;;;9.55;3.83;;;;;;;12.08;66.68;101753.44;4402499;32;20090;-77
2021/03/30 01:17:59;;;;;;;12.37;4.05;;;;;;;12.66;65.46;101751.34;3987308;32;15026374;-81
2021/03/30 01:20:56;;;;;;;10.27;4.05;;;;;;;12.66;65.46;101751.34;4440250;32;20410;-77
2021/03/30 01:29:50;;;;;;;9.63;4.82;;;;;;;12.58;64.19;101749.88;3983811;32;15024958;-78
2021/03/30 01:32:23;;;;;;;11.50;4.30;;;;;;;12.58;64.19;101749.88;4438575;32;20067;-75
2021/03/30 01:34:51;;;;;;;13.23;4.20;;;;;;;12.20;64.69;101742.78;4438804;32;20041;-77
2021/03/30 01:37:19;;;;;;;10.77;4.43;;;;;;;12.22;64.90;101729.06;4439552;32;20134;-77
2021/03/30 01:39:50;;;;;;;9.50;4.47;;;;;;;12.12;65.09;101732.84;4431204;32;20124;-75
2021/03/30 01:42:21;;;;;;;9.50;4.47;;;;;;;12.03;65.40;101731.34;4439617;32;20057;-78
2021/03/30 01:44:48;;;;;;;10.57;4.80;;;;;;;12.09;65.08;101728.84;4440525;32;20052;-76
2021/03/30 01:47:14;;;;;;;12.20;4.55;;;;;;;12.18;65.20;101723.47;4438764;32;20130;-78
2021/03/30 01:49:40;;;;;;;12.00;4.90;;;;;;;12.04;65.36;101721.66;4442633;32;20512;-78
2021/03/30 01:52:09;;;;;;;10.98;4.47;;;;;;;11.96;65.73;101725.81;4440243;32;20410;-79
2021/03/30 01:54:37;;;;;;;13.27;4.85;;;;;;;11.98;65.54;101723.38;4441196;32;20047;-78
2021/03/30 01:57:05;;;;;;;18.48;5.70;;;;;;;12.14;65.38;101722.72;4438992;32;20026;-79
2021/03/30 01:59:32;;;;;;;19.40;6.53;;;;;;;11.98;67.91;101716.91;4439505;32;20064;-77
2021/03/30 02:02:00;;;;;;;13.05;6.45;;;;;;;11.95;69.44;101727.03;4426400;32;20423;-78
2021/03/30 02:04:30;;;;;;;16.70;6.32;;;;;;;11.62;70.59;101722.25;4423335;32;20115;-76
2021/03/30 02:06:57;;;;;;;13.07;6.45;;;;;;;11.49;71.94;101726.00;4425743;32;20440;-75
2021/03/30 02:09:30;;;;;;;15.02;6.53;;;;;;;11.54;71.86;101723.50;4423338;32;20512;-79
2021/03/30 02:12:04;;;;;;;24.05;7.95;;;;;;;11.54;72.88;101719.91;4419692;32;20069;-77
2021/03/30 02:14:30;;;;;;;17.90;8.50;;;;;;;11.45;74.24;101726.03;4423006;32;20138;-80
2021/03/30 02:22:14;;;;;;;16.45;8.30;;;;;;;11.38;76.72;101726.13;3988228;32;15025262;-78
2021/03/30 02:24:41;;;;;;;23.48;9.02;;;;;;;11.24;77.41;101717.84;4438937;32;20174;-79
2021/03/30 02:27:10;;;;;;;20.15;9.77;;;;;;;11.20;78.04;101721.91;4441301;32;20056;-81
2021/03/30 02:29:39;;;;;;;21.67;10.20;;;;;;;11.23;77.97;101721.84;4437715;32;20107;-75
2021/03/30 02:32:09;;;;;;;18.17;8.65;;;;;;;10.99;78.93;101714.50;4441362;32;20040;-76
2021/03/30 02:34:35;;;;;;;19.85;8.77;;;;;;;10.94;79.41;101706.50;4438197;32;20036;-79
2021/03/30 02:37:01;;;;;;;15.05;8.45;;;;;;;10.97;78.59;101707.66;4439595;32;20069;-79
2021/03/30 02:39:28;;;;;;;18.27;8.65;;;;;;;10.87;78.58;101708.56;4437089;32;20049;-79
2021/03/30 02:41:56;;;;;;;16.80;8.25;;;;;;;10.99;78.09;101708.06;4440405;32;20143;-80
2021/03/30 02:44:23;;;;;;;21.33;8.60;;;;;;;11.03;77.40;101709.62;4438575;32;20444;-81
2021/03/30 02:46:50;;;;;;;13.55;7.47;;;;;;;11.04;76.70;101716.03;4432483;32;20527;-82
2021/03/30 02:49:18;;;;;;;16.42;8.35;;;;;;;11.05;76.11;101717.66;4439082;32;20145;-80
2021/03/30 02:51:46;;;;;;;16.33;7.53;;;;;;;11.21;74.62;101721.50;4433421;32;20343;-76
2021/03/30 02:54:13;;;;;;;19.48;7.32;;;;;;;11.19;74.35;101709.03;4439135;32;20094;-81
2021/03/30 02:56:39;;;;;;;16.70;7.60;;;;;;;11.21;73.99;101713.03;4441643;32;20026;-77
2021/03/30 02:59:05;;;;;;;18.17;7.47;;;;;;;11.16;73.53;101710.69;4440106;32;20156;-79
2021/03/30 03:01:32;;;;;;;12.52;6.90;;;;;;;11.24;72.67;101717.84;4428511;32;20093;-81
2021/03/30 03:04:01;;;;;;;21.27;7.93;;;;;;;11.30;72.02;101715.34;4419657;32;20053;-82
2021/03/30 03:06:28;;;;;;;18.85;8.20;;;;;;;11.30;71.54;101721.81;4423202;32;20405;-74
2021/03/30 03:08:55;;;;;;;14.85;7.18;;;;;;;11.19;71.23;101714.66;4424338;32;20488;-76
2021/03/30 03:11:21;;;;;;;15.02;6.70;;;;;;;11.28;70.78;101723.41;4418813;32;20116;-78
2021/03/30 03:13:50;;;;;;;18.02;7.70;;;;;;;11.31;70.15;101717.75;4419929;32;20516;-78
2021/03/30 03:16:20;;;;;;;14.23;6.68;;;;;;;11.34;69.66;101724.56;4420331;32;20065;-76
2021/03/30 03:18:46;;;;;;;15.82;7.12;;;;;;;11.37;68.77;101718.91;4417548;32;20157;-79
2021/03/30 03:21:13;;;;;;;12.82;6.28;;;;;;;11.36;68.66;101716.50;4419265;32;20382;-80
2021/03/30 03:23:40;;;;;;;16.05;6.78;;;;;;;11.35;68.78;101723.38;4417478;32;20094;-81
2021/03/30 03:26:07;;;;;;;14.50;6.30;;;;;;;11.29;68.76;101708.91;4418552;32;20021;-78
2021/03/30 03:28:37;;;;;;;14.45;6.60;;;;;;;11.22;68.60;101708.19;4416552;32;20373;-82
2021/03/30 03:31:03;;;;;;;15.27;7.00;;;;;;;11.08;69.37;101711.19;4421489;32;20066;-75
2021/03/30 03:33:29;;;;;;;16.62;7.15;;;;;;;11.09;69.19;101704.31;4406292;32;20119;-77
2021/03/30 03:36:08;;;;;;;16.70;7.57;;;;;;;11.04;69.09;101708.37;4412544;32;20123;-76
2021/03/30 03:38:34;;;;;;;16.73;6.93;;;;;;;11.02;68.71;101704.41;4410872;32;20501;-79
2021/03/30 03:41:01;;;;;;;19.50;6.55;;;;;;;10.93;68.59;101710.53;4412381;32;20103;-77
2021/03/30 03:43:27;;;;;;;16.48;6.68;;;;;;;10.91;67.93;101698.06;4412922;32;20034;-77
2021/03/30 03:45:52;;;;;;;13.50;6.60;;;;;;;10.74;68.04;101697.00;4411846;32;20065;-74
2021/03/30 03:48:18;;;;;;;15.68;7.00;;;;;;;10.79;67.44;101698.59;4410797;32;20206;-79
2021/03/30 03:50:44;;;;;;;13.35;6.72;;;;;;;10.84;67.10;101692.50;4409691;32;20398;-79
2021/03/30 03:53:11;;;;;;;15.85;6.28;;;;;;;10.89;66.45;101709.75;4408859;32;20125;-79
2021/03/30 03:55:45;;;;;;;12.05;6.03;;;;;;;10.87;65.53;101706.56;4407994;32;20057;-82
2021/03/30 03:58:15;;;;;;;13.80;5.90;;;;;;;10.92;65.23;101710.94;4410098;32;20050;-79
2021/03/30 04:00:42;;;;;;;13.82;5.65;;;;;;;10.94;64.62;101700.03;4409907;32;20121;-78
2021/03/30 04:03:32;;;;;;;11.63;5.37;;;;;;;11.00;64.11;101706.81;4411360;32;20063;-76
2021/03/30 04:06:16;;;;;;;10.23;4.97;;;;;;;11.01;64.26;101711.22;4407948;32;20129;-80
2021/03/30 04:08:46;;;;;;;15.90;5.32;;;;;;;10.83;63.99;101719.09;4410751;32;20683;-76
2021/03/30 04:11:13;;;;;;;15.05;5.82;;;;;;;10.76;64.55;101714.31;4413143;32;20034;-78
2021/03/30 04:13:40;;;;;;;8.65;4.90;;;;;;;10.73;64.53;101726.41;4407955;32;20073;-77
2021/03/30 04:16:07;;;;;;;11.85;5.25;;;;;;;10.84;63.94;101726.31;4406305;32;20093;-77
2021/03/30 04:18:34;;;;;;;10.82;5.37;;;;;;;10.86;63.94;101729.50;4408218;32;20470;-79
2021/03/30 04:21:02;;;;;;;11.75;5.55;;;;;;;10.70;64.41;101727.22;4409629;32;20525;-80
2021/03/30 04:23:28;;;;;;;14.75;5.90;;;;;;;10.82;64.24;101725.91;4405196;32;21182;-79
2021/03/30 04:25:54;;;;;;;10.77;5.28;;;;;;;10.80;64.06;101725.53;4407703;32;20086;-82
2021/03/30 04:28:20;;;;;;;16.05;5.85;;;;;;;10.81;64.01;101735.59;4408389;32;20050;-80
2021/03/30 04:30:46;;;;;;;11.40;5.87;;;;;;;10.70;64.41;101737.69;4408356;32;20047;-78
2021/03/30 04:33:12;;;;;;;16.12;5.70;;;;;;;10.66;64.68;101729.28;4413039;32;20062;-81
2021/03/30 04:35:39;;;;;;;9.27;5.43;;;;;;;10.64;64.53;101737.34;4411306;32;20072;-81
2021/03/30 04:38:05;;;;;;;9.30;5.40;;;;;;;10.57;64.68;101733.78;4411441;32;20136;-80
2021/03/30 04:40:31;;;;;;;11.43;5.12;;;;;;;10.67;64.22;101742.13;4410604;32;20065;-79
2021/03/30 04:42:56;;;;;;;17.45;5.10;;;;;;;10.66;63.33;101746.19;4409591;32;20038;-79
2021/03/30 04:45:23;;;;;;;9.55;5.00;;;;;;;10.61;63.38;101740.19;4407164;32;20057;-79
2021/03/30 04:47:48;;;;;;;10.75;5.10;;;;;;;10.60;63.37;101739.38;4408405;32;20482;-79
2021/03/30 04:50:15;;;;;;;11.12;5.62;;;;;;;10.59;63.95;101742.63;4382252;32;20062;-77
2021/03/30 04:52:40;;;;;;;13.32;5.82;;;;;;;10.54;64.32;101745.87;4406904;32;20217;-79
2021/03/30 04:55:07;;;;;;;18.12;5.43;;;;;;;10.67;63.72;101746.97;4403056;32;20066;-79
2021/03/30 04:57:33;;;;;;;18.35;6.47;;;;;;;10.82;63.16;101762.50;4410325;32;20105;-77
2021/03/30 04:59:59;;;;;;;15.32;5.60;;;;;;;10.83;62.81;101762.09;4402677;32;20030;-80
2021/03/30 05:02:24;;;;;;;11.35;5.78;;;;;;;10.82;62.69;101763.31;4407183;32;20069;-78
2021/03/30 05:04:50;;;;;;;13.93;5.62;;;;;;;10.78;62.96;101753.31;4411281;32;20126;-79
2021/03/30 05:07:16;;;;;;;16.27;5.87;;;;;;;10.79;63.04;101755.72;4408756;32;20038;-77
2021/03/30 05:09:42;;;;;;;12.30;5.57;;;;;;;10.74;63.18;101758.97;4408040;32;20356;-77
2021/03/30 05:12:08;;;;;;;14.68;6.00;;;;;;;10.38;64.51;101754.03;4407663;32;20164;-80
2021/03/30 05:14:33;;;;;;;12.35;6.28;;;;;;;10.31;64.77;101762.53;4406965;32;20080;-77
2021/03/30 05:16:59;;;;;;;16.20;6.32;;;;;;;10.27;64.92;101756.13;4410284;32;20504;-78
2021/03/30 05:19:25;;;;;;;18.15;5.22;;;;;;;10.24;65.02;101745.69;4410324;32;20671;-74
2021/03/30 05:21:50;;;;;;;8.90;4.32;;;;;;;10.18;64.12;101747.34;4405764;32;20486;-77
2021/03/30 05:24:16;;;;;;;14.38;4.40;;;;;;;10.12;62.58;101754.63;4408157;32;20058;-77
2021/03/30 05:26:42;;;;;;;14.52;5.65;;;;;;;10.15;61.21;101751.75;4403313;32;20412;-78
2021/03/30 05:29:08;;;;;;;14.73;4.60;;;;;;;10.13;61.08;101757.03;4408217;32;20091;-78
2021/03/30 05:31:33;;;;;;;12.43;3.47;;;;;;;10.22;60.19;101750.94;4406826;32;20042;-77
2021/03/30 05:33:59;;;;;;;9.88;3.50;;;;;;;10.21;60.11;101752.94;4409256;32;20037;-78
2021/03/30 05:36:25;;;;;;;9.73;3.75;;;;;;;10.22;60.03;101750.94;4405798;32;20062;-81
2021/03/30 05:38:50;;;;;;;10.88;4.50;;;;;;;10.22;59.65;101756.56;4406322;32;20058;-77
2021/03/30 05:41:16;;;;;;;12.02;4.37;;;;;;;10.32;59.66;101759.31;4406308;32;20066;-78
2021/03/30 05:43:42;;;;;;;10.70;3.70;;;;;;;10.32;59.63;101750.88;4402924;32;20100;-78
2021/03/30 05:46:09;;;;;;;14.85;3.65;;;;;;;10.35;59.04;101743.59;4404288;32;20030;-81
2021/03/30 05:48:35;;;;;;;14.43;4.40;;;;;;;10.24;59.38;101749.31;4407238;32;20044;-76
2021/03/30 05:51:01;;;;;;;15.50;4.68;;;;;;;10.40;59.16;101752.41;4406600;32;20068;-78
2021/03/30 05:53:29;;;;;;;12.23;4.18;;;;;;;10.37;59.17;101750.41;4404731;32;20081;-81
2021/03/30 05:56:01;;;;;;;14.82;4.50;;;;;;;10.29;59.39;101757.31;4405586;32;20097;-76
2021/03/30 05:58:30;;;;;;;17.48;4.70;;;;;;;10.18;59.91;101761.41;4408007;32;20097;-78
2021/03/30 06:01:00;;;;;;;10.23;4.07;;;;;;;10.20;59.80;101762.59;4405273;32;20479;-78
2021/03/30 06:03:28;;;;;;;17.42;4.20;;;;;;;10.26;59.53;101765.75;4407483;32;20041;-78
2021/03/30 06:05:57;;;;;;;12.82;4.18;;;;;;;10.24;59.73;101757.75;4407391;32;20096;-78
2021/03/30 06:08:24;;;;;;;19.80;4.43;;;;;;;10.33;59.53;101746.00;4405202;32;20034;-76
2021/03/30 06:10:53;;;;;;;14.68;4.53;;;;;;;10.38;59.29;101754.84;4405201;32;20062;-78
2021/03/30 06:13:47;;;;;;;16.20;5.87;;;;;;;10.45;58.86;101753.97;4405116;32;20093;-79
2021/03/30 06:22:03;;;;;;;11.02;4.37;;;;;;;11.07;56.74;101746.19;3985035;32;15024384;-77
2021/03/30 06:24:32;;;;;;;12.32;4.22;;;;;;;11.05;56.93;101751.44;4438960;32;20049;-77
2021/03/30 06:27:18;;;;;;;10.50;3.67;;;;;;;11.27;55.93;101753.62;4440079;32;20077;-76
2021/03/30 06:29:45;;;;;;;18.27;4.00;;;;;;;11.48;55.12;101752.59;4438291;32;20045;-75
2021/03/30 06:32:13;;;;;;;11.60;3.70;;;;;;;11.58;54.96;101751.66;4437457;32;20464;-76
2021/03/30 06:34:42;;;;;;;14.75;3.85;;;;;;;11.80;54.63;101750.19;4438128;32;20025;-79
2021/03/30 06:40:30;;;;;;;15.30;4.07;;;;;;;12.86;51.80;101750.19;3994366;31;15014032;-76
2021/03/30 06:43:00;;;;;;;11.80;3.87;;;;;;;12.86;51.80;101750.19;4436860;32;21004;-79
2021/03/30 06:45:28;;;;;;;18.62;4.00;;;;;;;12.54;51.96;101749.13;4444946;32;20072;-80
2021/03/30 06:47:57;;;;;;;14.60;3.62;;;;;;;12.78;51.76;101750.72;4439930;32;20038;-81
2021/03/30 06:50:32;;;;;;;16.37;3.97;;;;;;;12.87;51.60;101748.16;4446020;32;20464;-75
2021/03/30 06:53:10;;;;;;;17.37;3.90;;;;;;;13.05;50.87;101752.31;4445137;32;20079;-77
2021/03/30 06:55:46;;;;;;;13.85;4.05;;;;;;;13.27;50.46;101758.34;4446253;32;20589;-78
2021/03/30 06:58:13;;;;;;;14.40;4.47;;;;;;;13.40;49.98;101757.28;4441365;32;20037;-81
2021/03/30 07:00:39;;;;;;;12.18;3.33;;;;;;;13.50;49.67;101761.94;4441143;32;20076;-78
2021/03/30 07:03:07;;;;;;;8.10;3.10;;;;;;;13.51;49.59;101752.25;4430924;32;20142;-81
2021/03/30 07:08:16;;;;;;;18.37;3.97;;;;;;;14.29;48.28;101757.03;3970770;32;15021947;-77
2021/03/30 07:13:21;;;;;;;12.95;3.20;;;;;;;14.12;47.89;101760.25;3975840;32;15020955;-77
2021/03/30 07:15:49;;;;;;;9.77;3.42;;;;;;;14.13;47.72;101759.00;4419744;32;20099;-80
2021/03/30 07:21:00;;;;;;;11.75;2.90;;;;;;;14.92;46.77;101778.16;3971468;32;15024411;-77
2021/03/30 07:23:29;;;;;;;16.02;4.00;;;;;;;14.92;46.77;101778.16;4415095;32;20136;-77
2021/03/30 07:28:37;;;;;;;27.67;4.30;;;;;;;14.79;46.17;101765.91;3966380;32;15029295;-80
2021/03/30 07:31:07;;;;;;;9.70;3.20;;;;;;;14.86;45.95;101768.59;4417323;32;20049;-78
2021/03/30 07:33:46;;;;;;;11.48;3.92;;;;;;;15.06;45.61;101757.94;4413419;32;20406;-77
2021/03/30 07:36:15;;;;;;;13.45;3.55;;;;;;;15.17;45.38;101769.00;4415394;32;20063;-77
2021/03/30 07:38:46;;;;;;;9.70;3.00;;;;;;;15.30;45.59;101767.81;4419597;32;20100;-78
2021/03/30 07:41:18;;;;;;;20.20;3.92;;;;;;;15.30;45.10;101767.81;4419204;32;20081;-76
2021/03/30 07:43:44;;;;;;;35.05;9.63;;;;;;;15.43;45.42;101759.37;4419049;32;20308;-78
2021/03/30 07:46:11;;;;;;;41.17;13.07;;;;;;;15.51;46.95;101774.97;4419428;32;20107;-79
2021/03/30 07:48:39;;;;;;;38.88;12.65;;;;;;;15.52;47.78;101783.03;4414297;32;20424;-77
2021/03/30 07:59:01;;;;;;;37.88;11.18;;;;;;;15.94;46.54;101784.69;3973918;32;15022119;-79
2021/03/30 08:01:29;;;;;;;44.83;11.52;;;;;;;15.64;47.24;101772.97;4427878;32;20079;-77
2021/03/30 08:03:56;;;;;;;41.92;10.88;;;;;;;15.68;46.99;101771.63;4429567;32;20111;-76
2021/03/30 08:09:00;;;;;;;52.33;11.93;;;;;;;16.17;46.88;101771.44;3994498;31;15018200;-77
2021/03/30 08:11:47;;;;;;;41.13;11.88;;;;;;;16.17;46.88;101771.44;4446612;32;20131;-78
2021/03/30 08:16:59;;;;;;;40.50;11.20;;;;;;;16.17;47.24;101794.16;3973377;32;15024273;-80
2021/03/30 08:19:26;;;;;;;42.22;10.52;;;;;;;16.17;47.24;101794.16;4422819;32;20053;-79
2021/03/30 08:32:48;;;;;;;40.83;11.70;;;;;;;16.58;45.92;101802.63;4004081;31;15013550;-78
2021/03/30 08:38:06;;;;;;;38.83;11.80;;;;;;;16.89;45.36;101795.09;3978527;32;15025169;-79
2021/03/30 08:46:09;;;;;;;31.87;9.02;;;;;;;17.19;44.71;101792.44;3983017;32;15022543;-81
2021/03/30 08:51:15;;;;;;;24.10;8.05;;;;;;;17.44;44.00;101795.25;3982157;32;15025380;-78
2021/03/30 08:53:44;;;;;;;21.60;7.22;;;;;;;17.44;44.00;101795.25;4434136;32;20053;-78
2021/03/30 08:56:12;;;;;;;22.77;7.40;;;;;;;17.12;44.30;101792.66;4435443;32;20037;-78
2021/03/30 08:58:49;;;;;;;18.73;7.05;;;;;;;17.40;43.72;101794.53;4434209;32;20072;-83
2021/03/30 09:01:22;;;;;;;27.60;7.18;;;;;;;17.73;43.32;101806.37;4431539;32;20138;-79
2021/03/30 09:03:52;;;;;;;21.95;6.30;;;;;;;17.94;42.58;101790.59;4426907;32;20096;-79
2021/03/30 09:06:34;;;;;;;19.02;6.12;;;;;;;18.24;42.03;101793.44;4425350;32;20095;-79
2021/03/30 09:09:00;;;;;;;31.95;7.30;;;;;;;18.34;41.28;101792.22;4424656;32;20057;-79
2021/03/30 09:11:27;;;;;;;23.65;7.65;;;;;;;18.51;41.51;101795.69;4426027;32;20029;-76
2021/03/30 09:13:58;;;;;;;30.85;7.10;;;;;;;18.73;40.55;101796.41;4421279;32;20419;-83
2021/03/30 09:16:24;;;;;;;17.55;6.00;;;;;;;18.94;40.80;101796.34;4426932;32;20150;-79
2021/03/30 09:18:51;;;;;;;21.35;6.43;;;;;;;19.23;40.56;101795.91;4425388;32;20034;-83
2021/03/30 09:21:21;;;;;;;11.55;4.40;;;;;;;19.48;39.68;101795.63;4424513;32;20450;-78
2021/03/30 09:23:48;;;;;;;15.48;3.60;;;;;;;19.83;38.52;101796.13;4426906;32;20090;-79
2021/03/30 09:26:17;;;;;;;16.92;3.97;;;;;;;20.15;37.81;101799.13;4425712;32;20093;-79
2021/03/30 09:28:43;;;;;;;13.90;3.45;;;;;;;20.48;37.06;101799.19;4425147;32;20097;-81
2021/03/30 09:31:11;;;;;;;15.40;3.70;;;;;;;20.68;36.59;101797.34;4424504;32;20066;-78
2021/03/30 09:33:37;;;;;;;18.58;4.62;;;;;;;20.66;36.50;101794.22;4425289;32;20309;-81
2021/03/30 09:36:10;;;;;;;14.10;3.28;;;;;;;21.02;36.23;101799.00;4420050;32;20089;-80
2021/03/30 09:38:53;;;;;;;12.77;3.50;;;;;;;21.17;35.46;101803.50;4424511;32;20084;-79
2021/03/30 09:41:41;;;;;;;14.98;3.53;;;;;;;21.36;35.38;101804.94;4420248;32;20114;-76
2021/03/30 09:44:08;;;;;;;9.48;3.53;;;;;;;21.66;34.73;101811.56;4420024;32;20072;-74
2021/03/30 09:46:34;;;;;;;8.10;2.78;;;;;;;22.00;34.46;101810.97;4422589;32;20100;-80
2021/03/30 09:49:01;;;;;;;10.27;3.45;;;;;;;22.19;33.85;101806.66;4422017;32;20042;-81
2021/03/30 09:51:27;;;;;;;10.27;3.47;;;;;;;22.24;34.15;101810.91;4422645;32;20078;-83
2021/03/30 09:53:52;;;;;;;12.85;3.50;;;;;;;22.35;33.73;101805.38;4420606;32;20130;-78
2021/03/30 09:56:22;;;;;;;12.48;3.62;;;;;;;22.35;33.71;101803.31;4420261;32;20571;-77
2021/03/30 09:58:54;;;;;;;18.48;3.87;;;;;;;22.16;34.15;101804.78;4418176;32;20126;-76
2021/03/30 10:01:21;;;;;;;13.62;3.75;;;;;;;21.94;34.78;101806.44;4415725;32;20509;-76
2021/03/30 10:03:49;;;;;;;17.90;7.28;;;;;;;21.90;34.90;101808.72;4411447;32;20103;-78
2021/03/30 10:06:18;;;;;;;11.77;3.08;;;;;;;21.65;35.44;101805.06;4407099;32;20108;-74
2021/03/30 10:08:44;;;;;;;15.10;3.55;;;;;;;22.05;35.09;101806.63;4414601;32;20082;-76
2021/03/30 10:11:10;;;;;;;9.05;3.20;;;;;;;22.30;34.64;101811.81;4410906;32;20042;-75
2021/03/30 10:13:39;;;;;;;14.13;3.65;;;;;;;22.27;34.40;101804.19;4410815;32;20073;-78
2021/03/30 10:16:10;;;;;;;12.52;3.80;;;;;;;22.47;34.16;101812.87;4413881;32;20045;-78
2021/03/30 10:18:37;;;;;;;16.37;4.20;;;;;;;22.53;34.29;101796.59;4408188;32;20058;-78
2021/03/30 10:23:41;;;;;;;11.67;3.33;;;;;;;22.81;34.38;101795.75;3945715;32;15830415;-75
2021/03/30 10:26:14;;;;;;;14.25;3.50;;;;;;;23.00;33.72;101802.81;4424755;32;20073;-75
2021/03/30 10:28:41;;;;;;;10.85;2.92;;;;;;;23.28;33.76;101800.38;4423344;32;20977;-81
2021/03/30 10:31:20;;;;;;;10.90;3.60;;;;;;;23.17;33.59;101794.44;4420237;32;20037;-78
2021/03/30 10:33:50;;;;;;;13.32;3.40;;;;;;;23.46;33.63;101806.63;4424382;32;20046;-80
2021/03/30 10:36:16;;;;;;;13.73;3.62;;;;;;;23.55;33.65;101799.94;4424761;32;20073;-79
2021/03/30 10:39:04;;;;;;;19.50;3.78;;;;;;;23.91;32.89;101805.09;4426567;32;20076;-77
2021/03/30 10:41:33;;;;;;;15.07;3.40;;;;;;;23.84;32.50;101801.88;4423651;32;20215;-80
2021/03/30 10:44:00;;;;;;;13.95;3.42;;;;;;;24.03;32.39;101803.94;4424314;32;20064;-79
2021/03/30 10:46:26;;;;;;;17.37;4.40;;;;;;;24.13;32.36;101798.81;4424500;32;20055;-77
2021/03/30 10:49:07;;;;;;;19.50;4.60;;;;;;;24.09;32.38;101804.00;4410426;32;20084;-77
2021/03/30 10:51:36;;;;;;;14.73;3.62;;;;;;;23.72;33.19;101803.03;4420525;32;20462;-78
2021/03/30 10:54:04;;;;;;;14.63;3.95;;;;;;;24.01;32.99;101795.03;4422684;32;20041;-79
2021/03/30 10:56:31;;;;;;;12.43;4.55;;;;;;;23.99;32.95;101791.84;4426329;32;20129;-78
2021/03/30 10:58:56;;;;;;;16.23;4.12;;;;;;;24.26;32.56;101802.87;4421676;32;20081;-77
2021/03/30 11:01:22;;;;;;;9.93;3.70;;;;;;;24.37;32.16;101797.22;4416641;32;20085;-80
2021/03/30 11:03:48;;;;;;;12.43;3.40;;;;;;;24.70;32.08;101788.88;4412786;32;20394;-78
2021/03/30 11:06:14;;;;;;;11.20;3.62;;;;;;;24.35;32.37;101791.19;4410221;32;20034;-80
2021/03/30 11:08:40;;;;;;;16.75;3.70;;;;;;;24.49;31.88;101775.06;4411421;32;20077;-78
2021/03/30 11:11:06;;;;;;;13.07;4.53;;;;;;;24.27;32.32;101789.28;4412327;32;20114;-80
2021/03/30 11:13:31;;;;;;;14.40;3.85;;;;;;;24.16;32.30;101781.31;4410435;32;20100;-79
2021/03/30 11:15:57;;;;;;;10.55;3.85;;;;;;;24.36;32.28;101777.59;4412717;32;20462;-77
2021/03/30 11:18:23;;;;;;;11.48;3.78;;;;;;;24.66;31.84;101776.00;4412945;32;20536;-79
2021/03/30 11:20:49;;;;;;;11.12;3.15;;;;;;;24.70;31.73;101771.59;4411440;32;20142;-85
2021/03/30 11:23:14;;;;;;;17.62;4.53;;;;;;;24.78;31.69;101775.59;4413785;32;20085;-78
2021/03/30 11:25:40;;;;;;;9.25;3.75;;;;;;;24.90;31.76;101767.81;4412634;32;20141;-82
2021/03/30 11:28:10;;;;;;;13.23;4.15;;;;;;;25.11;31.33;101769.25;4412043;32;20069;-77
2021/03/30 11:33:21;;;;;;;18.75;4.07;;;;;;;25.53;30.75;101777.88;3977112;32;15023555;-77
2021/03/30 11:35:54;;;;;;;9.48;3.42;;;;;;;25.53;30.75;101777.88;4426203;32;20547;-73
2021/03/30 11:38:20;;;;;;;11.48;3.80;;;;;;;24.95;31.57;101775.72;4426665;32;20034;-72
2021/03/30 11:40:47;;;;;;;11.85;4.00;;;;;;;25.37;31.03;101772.81;4429760;32;20112;-78
2021/03/30 11:43:13;;;;;;;11.57;3.90;;;;;;;25.44;30.26;101772.34;4428396;32;20060;-84
2021/03/30 11:45:40;;;;;;;17.27;3.90;;;;;;;25.01;30.24;101779.41;4428306;32;20092;-80
2021/03/30 11:48:06;;;;;;;10.25;3.83;;;;;;;25.24;30.37;101767.50;4426389;32;20415;-81
2021/03/30 11:50:34;;;;;;;22.98;5.00;;;;;;;25.15;30.28;101770.59;4430358;32;21252;-75
2021/03/30 11:52:59;;;;;;;14.13;4.18;;;;;;;25.48;30.12;101769.19;4429367;32;20100;-78
2021/03/30 11:55:25;;;;;;;12.68;3.97;;;;;;;25.72;30.02;101767.47;4431068;32;20057;-77
2021/03/30 11:57:52;;;;;;;30.20;4.90;;;;;;;25.88;29.43;101760.94;4429940;32;20081;-81
2021/03/30 12:00:19;;;;;;;14.32;3.42;;;;;;;26.42;28.53;101770.22;4430473;32;20091;-77
2021/03/30 12:02:46;;;;;;;11.65;4.18;;;;;;;26.56;28.47;101774.94;4412098;32;20422;-78
2021/03/30 12:05:13;;;;;;;15.25;3.45;;;;;;;27.03;27.53;101768.84;4413847;32;20098;-79
2021/03/30 12:07:39;;;;;;;10.35;3.80;;;;;;;27.51;26.76;101771.34;4419231;32;20070;-80
2021/03/30 12:10:07;;;;;;;14.87;3.85;;;;;;;27.58;26.00;101770.78;4415125;32;20073;-78
2021/03/30 12:12:34;;;;;;;8.88;3.83;;;;;;;27.93;25.62;101770.91;4419823;32;20144;-79
2021/03/30 12:15:00;;;;;;;12.40;4.35;;;;;;;28.08;25.57;101767.66;4418277;32;20093;-80
2021/03/30 12:17:26;;;;;;;9.85;3.50;;;;;;;28.20;25.09;101755.47;4417249;32;20096;-78
2021/03/30 12:19:52;;;;;;;9.27;3.45;;;;;;;28.31;24.49;101752.47;4418152;32;20033;-80
2021/03/30 12:22:18;;;;;;;17.73;3.55;;;;;;;27.95;25.31;101756.66;4420078;32;20081;-79
2021/03/30 12:24:44;;;;;;;15.93;4.07;;;;;;;28.35;24.69;101747.16;4417874;32;20034;-78
2021/03/30 12:27:10;;;;;;;14.85;3.60;;;;;;;28.50;24.46;101747.59;4418751;32;20129;-78
2021/03/30 12:29:38;;;;;;;14.15;4.20;;;;;;;28.61;24.30;101749.59;4419315;32;20035;-80
2021/03/30 12:32:05;;;;;;;11.05;3.95;;;;;;;28.71;24.64;101740.03;4418017;32;20146;-79
2021/03/30 12:34:34;;;;;;;32.38;4.37;;;;;;;28.82;24.95;101739.91;4416776;32;20093;-78
2021/03/30 12:37:00;;;;;;;14.87;4.45;;;;;;;28.96;24.50;101741.59;4418661;32;20426;-80
2021/03/30 12:39:25;;;;;;;8.75;3.55;;;;;;;28.59;24.22;101747.25;4417883;32;20089;-78